Terminal Aerodrome Forecast
Issued by NWS

Home | Current Version | Previous Version | Text Only | Print | Product List | Glossary On
Versions: 1 2 3 4 5 6 7 8 9 10 11 12 13 14 15 16 17 18 19 20 21 22 23 24 25 26 27 28 29 30
000
FTUS45 KGJT 011500 AAB
TAFASE
TAF AMD
KASE 011500Z 0115/0212 35004KT P6SM -SHRA SCT020 OVC050
      TEMPO 0115/0118 4SM -SHRA BR BKN025 OVC040
     FM012000 34010KT P6SM -SHRA VCTS FEW025 BKN040 OVC060CB
     FM020300 33005KT P6SM VCSH SCT025 OVC050
      TEMPO 0203/0207 4SM -SN BR BKN025
     FM020700 31003KT P6SM OVC050=

USA.gov is the U.S. government's official web portal to all federal, state and local government web resources and services.